Terminal Aerodrome Forecast
Issued by NWS

Home | Current Version | Previous Version | Text Only | Print | Product List | Glossary Off
Versions: 1 2 3 4 5 6 7 8 9 10 11 12 13 14 15 16 17 18 19 20 21 22 23 24 25 26 27 28 29

490
FTUS43 KLOT 142113 AAB
TAFMDW
TAF AMD
KMDW 142113Z 1421/1518 13008KT 4SM -SHRA BR FEW006 SCT015 OVC050
      TEMPO 1422/1423 2SM -TSRA BR SCT006 BKN015CB
     FM150000 16010KT 4SM TSRA BR OVC007CB
     FM150200 20015G23KT 4SM -SHRA VCTS SCT007 OVC020CB
      TEMPO 1505/1507 2SM TSRA OVC015CB
     FM151000 23017G25KT P6SM VCSH OVC015
     FM151200 26020G35KT P6SM BKN012 OVC018
     FM151700 30016G25KT P6SM BKN025=

USA.gov is the U.S. government's official web portal to all federal, state and local government web resources and services.